createdAt,value
2023-01-11T00:00:36.205Z,6.10
2023-01-11T00:03:06.075Z,6.10
2023-01-11T00:05:38.659Z,6.10
2023-01-11T00:08:06.998Z,6.10
2023-01-11T00:10:36.512Z,6.10
2023-01-11T00:13:04.866Z,6.10
2023-01-11T00:15:32.962Z,6.10
2023-01-11T00:18:02.788Z,6.20
2023-01-11T00:20:30.729Z,6.10
2023-01-11T00:22:58.662Z,6.10
2023-01-11T00:25:26.664Z,6.20
2023-01-11T00:27:56.652Z,6.20
2023-01-11T00:30:25.009Z,6.20
2023-01-11T00:32:56.509Z,6.20
2023-01-11T00:35:24.428Z,6.20
2023-01-11T00:37:53.222Z,6.20
2023-01-11T00:40:21.090Z,6.20
2023-01-11T00:43:06.494Z,6.20
2023-01-11T00:45:53.064Z,6.30
2023-01-11T00:48:20.940Z,6.30
2023-01-11T00:50:48.809Z,6.40
2023-01-11T00:53:18.204Z,6.40
2023-01-11T00:55:46.401Z,6.30
2023-01-11T00:58:14.212Z,6.40
2023-01-11T01:00:43.415Z,6.40
2023-01-11T01:03:11.295Z,6.40
2023-01-11T01:05:39.828Z,6.40
2023-01-11T01:08:07.900Z,6.40
2023-01-11T01:10:35.751Z,6.40
2023-01-11T01:13:21.277Z,6.50
2023-01-11T01:15:50.527Z,6.50
2023-01-11T01:18:20.477Z,6.50
2023-01-11T01:20:51.790Z,6.50
2023-01-11T01:23:19.589Z,6.50
2023-01-11T01:25:47.448Z,6.50
2023-01-11T01:28:15.310Z,6.60
2023-01-11T01:30:43.104Z,6.60
2023-01-11T01:33:12.219Z,6.60
2023-01-11T01:35:40.084Z,6.50
2023-01-11T01:38:07.926Z,6.50
2023-01-11T01:40:42.314Z,6.50
2023-01-11T01:43:11.688Z,6.50
2023-01-11T01:45:41.110Z,6.50
2023-01-11T01:48:13.498Z,6.50
2023-01-11T01:50:46.952Z,6.60
2023-01-11T01:53:22.516Z,6.60
2023-01-11T01:55:54.017Z,6.60
2023-01-11T01:58:24.630Z,6.70
2023-01-11T02:00:52.913Z,6.60
2023-01-11T02:03:25.331Z,6.70
2023-01-11T02:05:54.547Z,6.70
2023-01-11T02:08:33.898Z,6.70
2023-01-11T02:11:03.236Z,6.70
2023-01-11T02:13:45.817Z,6.70
2023-01-11T02:16:13.854Z,6.70
2023-01-11T02:18:43.131Z,6.70
2023-01-11T02:21:22.888Z,6.80
2023-01-11T02:24:20.367Z,6.80
2023-01-11T02:27:09.757Z,6.80
2023-01-11T02:29:48.479Z,6.80
2023-01-11T02:32:27.684Z,6.80
2023-01-11T02:35:06.548Z,6.80
2023-01-11T02:37:43.715Z,6.80
2023-01-11T02:40:21.403Z,6.80
2023-01-11T02:43:11.413Z,6.80
2023-01-11T02:45:47.757Z,6.80
2023-01-11T02:48:23.786Z,6.80
2023-01-11T02:50:59.302Z,6.90
2023-01-11T02:53:33.174Z,6.90
2023-01-11T02:56:05.314Z,6.90
2023-01-11T02:58:37.265Z,6.90
2023-01-11T03:01:07.289Z,6.90
2023-01-11T03:03:36.206Z,7.00
2023-01-11T03:06:08.340Z,7.00
2023-01-11T03:08:56.806Z,7.00
2023-01-11T03:11:58.455Z,7.00
2023-01-11T03:14:31.474Z,7.00
2023-01-11T03:17:11.891Z,7.10
2023-01-11T03:19:47.720Z,7.10
2023-01-11T03:22:23.067Z,7.10
2023-01-11T03:24:58.959Z,7.10
2023-01-11T03:27:36.514Z,7.10
2023-01-11T03:30:09.047Z,7.20
2023-01-11T03:32:47.500Z,7.20
2023-01-11T03:35:23.205Z,7.20
2023-01-11T03:37:56.652Z,7.30
2023-01-11T03:40:29.576Z,7.20
2023-01-11T03:43:14.303Z,7.30
2023-01-11T03:45:46.955Z,7.30
2023-01-11T03:48:20.885Z,7.40
2023-01-11T03:50:51.058Z,7.40
2023-01-11T03:53:21.080Z,7.40
2023-01-11T03:55:53.108Z,7.40
2023-01-11T03:58:21.004Z,7.40
2023-01-11T04:00:50.516Z,7.50
2023-01-11T04:03:19.762Z,7.50
2023-01-11T04:05:51.849Z,7.50
2023-01-11T04:08:19.831Z,7.50
2023-01-11T04:10:47.615Z,7.50
2023-01-11T04:13:15.497Z,7.50
2023-01-11T04:15:43.315Z,7.60
2023-01-11T04:18:11.209Z,7.60
2023-01-11T04:20:41.474Z,7.60
2023-01-11T04:23:10.640Z,7.60
2023-01-11T04:25:38.567Z,7.60
2023-01-11T04:28:06.611Z,7.60
2023-01-11T04:30:35.902Z,7.70
2023-01-11T04:33:03.756Z,7.70
2023-01-11T04:35:31.632Z,7.70
2023-01-11T04:38:00.778Z,7.70
2023-01-11T04:40:28.675Z,7.70
2023-01-11T04:42:55.487Z,7.70
2023-01-11T04:45:23.343Z,7.70
2023-01-11T04:47:55.539Z,7.80
2023-01-11T04:50:24.038Z,7.80
2023-01-11T04:52:52.510Z,7.80
2023-01-11T04:55:21.886Z,7.80
2023-01-11T04:57:49.672Z,7.80
2023-01-11T05:00:18.276Z,7.90
2023-01-11T05:02:46.108Z,7.90
2023-01-11T05:05:13.997Z,7.90
2023-01-11T05:07:41.795Z,7.90
2023-01-11T05:10:10.799Z,7.90
2023-01-11T05:12:40.040Z,8.00
2023-01-11T05:15:09.402Z,8.00
2023-01-11T05:17:37.222Z,8.00
2023-01-11T05:20:06.737Z,8.00
2023-01-11T05:22:34.621Z,8.00
2023-01-11T05:25:02.522Z,8.00
2023-01-11T05:27:30.352Z,8.10
2023-01-11T05:29:59.593Z,8.10
2023-01-11T05:32:27.376Z,8.20
2023-01-11T05:34:55.324Z,8.20
2023-01-11T05:37:23.147Z,8.20
2023-01-11T05:39:51.081Z,8.20
2023-01-11T05:42:18.853Z,8.20
2023-01-11T05:45:09.808Z,8.20
2023-01-11T05:47:39.149Z,8.30
2023-01-11T05:50:07.568Z,8.30
2023-01-11T05:52:35.402Z,8.30
2023-01-11T05:55:03.354Z,8.30
2023-01-11T05:57:31.166Z,8.30
2023-01-11T05:59:59.024Z,8.40
2023-01-11T06:02:26.997Z,8.40
2023-01-11T06:04:56.220Z,8.40
2023-01-11T06:07:25.459Z,8.40
2023-01-11T06:09:53.653Z,8.40
2023-01-11T06:12:21.533Z,8.40
2023-01-11T06:14:49.525Z,8.40
2023-01-11T06:17:17.352Z,8.40
2023-01-11T06:19:45.259Z,8.50
2023-01-11T06:22:14.529Z,8.50
2023-01-11T06:24:42.342Z,8.50
2023-01-11T06:27:10.769Z,8.50
2023-01-11T06:29:38.658Z,8.50
2023-01-11T06:32:07.084Z,8.50
2023-01-11T06:34:35.088Z,8.60
2023-01-11T06:37:03.033Z,8.60
2023-01-11T06:39:32.260Z,8.60
2023-01-11T06:42:00.190Z,8.60
2023-01-11T06:44:28.120Z,8.60
2023-01-11T06:46:56.129Z,8.60
2023-01-11T06:49:24.345Z,8.70
2023-01-11T06:51:52.184Z,8.60
2023-01-11T06:54:22.960Z,8.60
2023-01-11T06:56:52.217Z,8.60
2023-01-11T06:59:20.090Z,8.70
2023-01-11T07:01:48.272Z,8.70
2023-01-11T07:04:17.115Z,8.70
2023-01-11T07:06:45.029Z,8.70
2023-01-11T07:09:12.857Z,8.70
2023-01-11T07:11:40.812Z,8.80
2023-01-11T07:14:12.011Z,8.70
2023-01-11T07:16:39.952Z,8.80
2023-01-11T07:19:08.180Z,8.80
2023-01-11T07:21:36.119Z,8.80
2023-01-11T07:24:04.204Z,8.80
2023-01-11T07:26:33.540Z,8.80
2023-01-11T07:29:01.344Z,8.80
2023-01-11T07:31:30.636Z,8.90
2023-01-11T07:33:58.543Z,8.90
2023-01-11T07:36:26.419Z,8.90
2023-01-11T07:38:54.312Z,8.90
2023-01-11T07:41:39.631Z,8.90
2023-01-11T07:44:12.575Z,9.00
2023-01-11T07:46:42.016Z,8.90
2023-01-11T07:49:10.184Z,8.90
2023-01-11T07:51:38.047Z,9.00
2023-01-11T07:54:06.079Z,9.00
2023-01-11T07:56:33.986Z,9.00
2023-01-11T07:59:01.890Z,9.00
2023-01-11T08:01:29.733Z,9.10
2023-01-11T08:03:58.977Z,9.10
2023-01-11T08:06:26.809Z,9.10
2023-01-11T08:08:54.696Z,9.20
2023-01-11T08:11:40.200Z,9.20
2023-01-11T08:14:24.000Z,9.20
2023-01-11T08:16:52.076Z,9.20
2023-01-11T08:19:21.323Z,9.20
2023-01-11T08:21:50.580Z,9.30
2023-01-11T08:24:18.850Z,9.30
2023-01-11T08:26:46.760Z,9.30
2023-01-11T08:29:14.599Z,9.30
2023-01-11T08:31:44.782Z,9.30
2023-01-11T08:34:12.651Z,9.40
2023-01-11T08:36:41.815Z,9.40
2023-01-11T08:39:10.133Z,9.40
2023-01-11T08:41:38.323Z,9.40
2023-01-11T08:44:06.431Z,9.40
2023-01-11T08:46:34.641Z,9.40
2023-01-11T08:49:02.494Z,9.50
2023-01-11T08:51:30.914Z,9.50
2023-01-11T08:54:00.151Z,9.50
2023-01-11T08:56:28.151Z,9.50
2023-01-11T08:58:55.970Z,9.60
2023-01-11T09:01:23.892Z,9.60
2023-01-11T09:03:51.710Z,9.70
2023-01-11T09:06:19.772Z,9.80
2023-01-11T09:08:47.711Z,9.80
2023-01-11T09:11:30.897Z,9.90
2023-01-11T09:13:58.838Z,10.00
2023-01-11T09:16:26.665Z,10.00
2023-01-11T09:18:55.613Z,10.10
2023-01-11T09:21:23.989Z,10.10
2023-01-11T09:23:51.996Z,10.10
2023-01-11T09:26:21.131Z,10.10
2023-01-11T09:28:49.204Z,10.10
2023-01-11T09:31:17.062Z,10.20
2023-01-11T09:33:44.943Z,10.20
2023-01-11T09:36:14.757Z,10.20
2023-01-11T09:38:43.815Z,10.30
2023-01-11T09:41:28.510Z,10.30
2023-01-11T09:44:04.516Z,10.40
2023-01-11T09:46:33.366Z,10.40
2023-01-11T09:49:03.283Z,10.40
2023-01-11T09:51:37.380Z,10.40
2023-01-11T09:54:10.113Z,10.50
2023-01-11T09:56:46.340Z,10.40
2023-01-11T09:59:22.923Z,10.50
2023-01-11T10:02:01.291Z,10.50
2023-01-11T10:04:48.517Z,10.50
2023-01-11T10:07:38.829Z,10.50
2023-01-11T10:18:39.797Z,10.50
2023-01-11T10:19:38.302Z,10.40
2023-01-11T10:22:12.834Z,10.40
2023-01-11T10:24:45.357Z,10.40
2023-01-11T10:27:20.570Z,10.40
2023-01-11T10:30:12.652Z,10.40
2023-01-11T10:33:05.822Z,10.50
2023-01-11T10:35:47.773Z,10.50
2023-01-11T10:38:43.268Z,10.50
2023-01-11T10:41:25.799Z,10.50
2023-01-11T10:44:02.589Z,10.50
2023-01-11T10:46:34.451Z,10.50
2023-01-11T10:49:09.476Z,10.50
2023-01-11T10:51:44.022Z,10.50
2023-01-11T10:54:16.571Z,10.50
2023-01-11T10:57:01.984Z,10.50
2023-01-11T11:00:05.398Z,10.50
2023-01-11T11:02:50.404Z,10.50
2023-01-11T11:05:29.018Z,10.50
2023-01-11T11:08:00.087Z,10.50
2023-01-11T11:10:33.240Z,10.50
2023-01-11T11:13:10.913Z,10.40
2023-01-11T11:15:46.530Z,10.50
2023-01-11T11:18:15.806Z,10.50
2023-01-11T11:20:46.021Z,10.50
2023-01-11T11:23:17.414Z,10.50
2023-01-11T11:25:49.715Z,10.50
2023-01-11T11:28:28.586Z,10.50
2023-01-11T11:30:59.282Z,10.60
2023-01-11T11:33:35.442Z,10.60
2023-01-11T11:36:05.197Z,10.60
2023-01-11T11:38:35.599Z,10.50
2023-01-11T11:41:09.121Z,10.50
2023-01-11T11:43:38.871Z,10.50
2023-01-11T11:46:22.426Z,10.50
2023-01-11T11:49:12.485Z,10.50
2023-01-11T11:51:42.136Z,10.50
2023-01-11T11:54:21.748Z,10.50
2023-01-11T11:56:50.559Z,10.50
2023-01-11T11:59:23.073Z,10.40
2023-01-11T12:01:58.798Z,10.40
2023-01-11T12:04:41.350Z,10.40
2023-01-11T12:07:15.000Z,10.40
2023-01-11T12:09:46.102Z,10.40
2023-01-11T12:12:19.217Z,10.40
2023-01-11T12:15:08.508Z,10.40
2023-01-11T12:17:36.677Z,10.30
2023-01-11T12:20:34.767Z,10.30
2023-01-11T12:23:17.859Z,10.30
2023-01-11T12:26:04.987Z,10.30
2023-01-11T12:29:00.179Z,10.30
2023-01-11T12:31:34.479Z,10.20
2023-01-11T12:34:14.547Z,10.20
2023-01-11T12:36:50.355Z,10.20
2023-01-11T12:39:27.668Z,10.20
2023-01-11T12:42:11.015Z,10.20
2023-01-11T12:44:50.775Z,10.20
2023-01-11T12:47:41.131Z,10.30
2023-01-11T12:50:16.803Z,10.30
2023-01-11T12:53:10.800Z,10.30
2023-01-11T12:55:51.381Z,10.20
2023-01-11T12:58:29.975Z,10.20
2023-01-11T13:01:20.794Z,10.30
2023-01-11T13:04:21.310Z,10.30
2023-01-11T13:06:59.762Z,10.30
2023-01-11T13:09:38.054Z,10.30
2023-01-11T13:12:13.635Z,10.30
2023-01-11T13:14:55.292Z,10.20
2023-01-11T13:17:34.124Z,10.10
2023-01-11T13:20:30.930Z,10.10
2023-01-11T13:23:04.847Z,10.10
2023-01-11T13:25:36.472Z,10.20
2023-01-11T13:28:20.082Z,10.10
2023-01-11T13:30:52.522Z,10.00
2023-01-11T13:33:23.803Z,10.00
2023-01-11T13:35:56.855Z,10.00
2023-01-11T13:38:35.599Z,10.00
2023-01-11T13:41:16.477Z,10.10
2023-01-11T13:43:51.460Z,10.10
2023-01-11T13:46:28.311Z,10.20
2023-01-11T13:49:01.551Z,10.30
2023-01-11T13:51:39.774Z,10.40
2023-01-11T13:54:15.152Z,10.40
2023-01-11T13:56:50.598Z,10.40
2023-01-11T13:59:23.837Z,10.40
2023-01-11T14:01:57.527Z,10.30
2023-01-11T14:04:31.461Z,10.20
2023-01-11T14:07:09.664Z,10.30
2023-01-11T14:10:03.430Z,10.20
2023-01-11T14:12:43.148Z,10.10
2023-01-11T14:15:27.279Z,10.00
2023-01-11T14:18:13.271Z,10.00
2023-01-11T14:20:46.592Z,9.90
2023-01-11T14:23:17.409Z,9.80
2023-01-11T14:26:02.273Z,9.80
2023-01-11T14:28:44.259Z,9.90
2023-01-11T14:31:40.862Z,9.90
2023-01-11T14:34:33.046Z,9.90
2023-01-11T14:37:13.442Z,9.80
2023-01-11T14:40:15.465Z,9.80
2023-01-11T14:43:17.582Z,9.80
2023-01-11T14:46:07.191Z,9.70
2023-01-11T14:48:47.070Z,9.70
2023-01-11T14:51:32.542Z,9.60
2023-01-11T14:54:06.444Z,9.60
2023-01-11T14:56:49.894Z,9.60
2023-01-11T14:59:39.063Z,9.60
2023-01-11T15:02:32.202Z,9.50
2023-01-11T15:05:08.903Z,9.50
2023-01-11T15:07:42.501Z,9.40
2023-01-11T15:10:48.294Z,9.30
2023-01-11T15:13:20.244Z,9.30
2023-01-11T15:16:06.433Z,9.20
2023-01-11T15:18:44.783Z,9.20
2023-01-11T15:21:17.144Z,9.10
2023-01-11T15:23:51.739Z,9.10
2023-01-11T15:26:20.485Z,9.10
2023-01-11T15:28:53.022Z,9.10
2023-01-11T15:31:36.614Z,9.10
2023-01-11T15:34:22.727Z,9.00
2023-01-11T15:37:22.289Z,9.00
2023-01-11T15:39:54.993Z,9.00
2023-01-11T15:42:48.700Z,8.90
2023-01-11T15:46:02.269Z,8.90
2023-01-11T15:48:37.421Z,8.80
2023-01-11T15:51:29.075Z,8.80
2023-01-11T15:54:15.590Z,8.80
2023-01-11T15:57:20.097Z,8.70
2023-01-11T16:00:24.356Z,8.70
2023-01-11T16:03:36.288Z,8.60
2023-01-11T16:06:14.077Z,8.60
2023-01-11T16:08:51.362Z,8.70
2023-01-11T16:11:26.372Z,8.60
2023-01-11T16:14:18.595Z,8.60
2023-01-11T16:16:51.630Z,8.60
2023-01-11T16:19:21.604Z,8.60
2023-01-11T16:21:53.088Z,8.50
2023-01-11T16:24:26.588Z,8.50
2023-01-11T16:26:58.307Z,8.40
2023-01-11T16:29:29.632Z,8.40
2023-01-11T16:31:59.835Z,8.40
2023-01-11T16:34:29.719Z,8.40
2023-01-11T16:36:59.105Z,8.40
2023-01-11T16:39:30.220Z,8.40
2023-01-11T16:42:03.164Z,8.40
2023-01-11T16:44:41.885Z,8.40
2023-01-11T16:47:15.688Z,8.30
2023-01-11T16:49:48.799Z,8.20
2023-01-11T16:52:47.076Z,8.20
2023-01-11T16:55:32.359Z,8.30
2023-01-11T16:58:02.827Z,8.80
2023-01-11T17:00:35.929Z,8.80
2023-01-11T17:03:23.710Z,8.70
2023-01-11T17:05:57.384Z,8.50
2023-01-11T17:08:29.904Z,8.30
2023-01-11T17:11:00.527Z,8.20
2023-01-11T17:13:54.810Z,8.20
2023-01-11T17:16:25.672Z,8.10
2023-01-11T17:18:54.422Z,8.10
2023-01-11T17:21:25.735Z,8.10
2023-01-11T17:23:59.279Z,8.00
2023-01-11T17:26:28.900Z,8.00
2023-01-11T17:28:59.499Z,8.00
2023-01-11T17:31:30.979Z,7.90
2023-01-11T17:34:05.667Z,7.90
2023-01-11T17:36:34.196Z,7.80
2023-01-11T17:39:06.383Z,7.80
2023-01-11T17:41:52.283Z,7.80
2023-01-11T17:44:40.221Z,7.80
2023-01-11T17:47:11.849Z,7.70
2023-01-11T17:49:40.398Z,7.80
2023-01-11T17:52:18.199Z,7.70
2023-01-11T17:54:47.587Z,7.80
2023-01-11T17:57:15.432Z,7.80
2023-01-11T17:59:43.280Z,7.80
2023-01-11T18:02:14.772Z,7.90
2023-01-11T18:04:43.627Z,7.80
2023-01-11T18:07:17.624Z,7.80
2023-01-11T18:09:48.968Z,7.90
2023-01-11T18:12:20.752Z,7.80
2023-01-11T18:14:52.402Z,7.80
2023-01-11T18:17:34.898Z,7.80
2023-01-11T18:20:04.210Z,7.90
2023-01-11T18:22:35.098Z,7.90
2023-01-11T18:25:18.744Z,7.90
2023-01-11T18:27:47.542Z,7.90
2023-01-11T18:30:37.401Z,7.90
2023-01-11T18:33:12.599Z,7.80
2023-01-11T18:35:44.527Z,7.80
2023-01-11T18:38:16.296Z,7.80
2023-01-11T18:40:46.634Z,7.70
2023-01-11T18:43:15.366Z,7.60
2023-01-11T18:45:43.655Z,7.60
2023-01-11T18:48:12.743Z,7.60
2023-01-11T18:50:43.251Z,7.60
2023-01-11T18:53:12.279Z,7.50
2023-01-11T18:55:40.348Z,7.50
2023-01-11T18:58:10.197Z,7.50
2023-01-11T19:00:38.425Z,7.50
2023-01-11T19:03:06.552Z,7.50
2023-01-11T19:05:34.446Z,7.50
2023-01-11T19:08:02.253Z,7.50
2023-01-11T19:10:30.155Z,7.50
2023-01-11T19:12:58.627Z,7.50
2023-01-11T19:15:28.068Z,7.50
2023-01-11T19:17:56.019Z,7.60
2023-01-11T19:20:23.894Z,7.60
2023-01-11T19:26:09.243Z,7.60
2023-01-11T19:28:39.078Z,7.50
2023-01-11T19:31:11.232Z,7.50
2023-01-11T19:33:41.413Z,7.50
2023-01-11T19:36:10.485Z,7.50
2023-01-11T19:38:39.585Z,7.50
2023-01-11T19:41:09.971Z,7.50
2023-01-11T19:43:44.587Z,7.40
2023-01-11T19:46:19.553Z,7.40
2023-01-11T19:48:53.893Z,7.40
2023-01-11T19:51:21.703Z,7.40
2023-01-11T19:53:49.595Z,7.40
2023-01-11T19:56:17.419Z,7.40
2023-01-11T19:58:45.256Z,7.30
2023-01-11T20:01:14.531Z,7.30
2023-01-11T20:03:42.500Z,7.30
2023-01-11T20:06:10.604Z,7.30
2023-01-11T20:08:40.915Z,7.20
2023-01-11T20:11:10.384Z,7.20
2023-01-11T20:13:38.367Z,7.20
2023-01-11T20:16:07.587Z,7.10
2023-01-11T20:18:37.515Z,7.10
2023-01-11T20:21:05.984Z,7.10
2023-01-11T20:23:34.430Z,7.10
2023-01-11T20:26:03.875Z,7.10
2023-01-11T20:28:32.293Z,7.00
2023-01-11T20:31:02.419Z,7.00
2023-01-11T20:33:30.614Z,7.00
2023-01-11T20:35:59.851Z,7.00
2023-01-11T20:38:28.855Z,6.90
2023-01-11T20:40:56.694Z,6.90
2023-01-11T20:43:24.590Z,7.00
2023-01-11T20:45:56.725Z,7.00
2023-01-11T20:48:24.597Z,7.00
2023-01-11T20:50:52.468Z,7.00
2023-01-11T20:53:21.724Z,7.00
2023-01-11T20:55:49.644Z,7.00
2023-01-11T20:58:17.548Z,7.00
2023-01-11T21:00:45.416Z,7.00
2023-01-11T21:03:13.252Z,7.00
2023-01-11T21:05:41.055Z,7.00
2023-01-11T21:08:08.892Z,6.90
2023-01-11T21:10:38.028Z,7.00
2023-01-11T21:13:06.780Z,6.90
2023-01-11T21:15:34.626Z,6.90
2023-01-11T21:18:02.527Z,6.90
2023-01-11T21:20:30.401Z,6.90
2023-01-11T21:22:58.279Z,6.90
2023-01-11T21:25:26.101Z,6.90
2023-01-11T21:27:55.597Z,6.90
2023-01-11T21:30:23.507Z,6.90
2023-01-11T21:32:51.352Z,6.90
2023-01-11T21:35:19.352Z,6.90
2023-01-11T21:37:47.170Z,7.00
2023-01-11T21:40:15.069Z,7.00
2023-01-11T21:42:42.951Z,7.00
2023-01-11T21:45:12.887Z,6.90
2023-01-11T21:47:40.874Z,7.00
2023-01-11T21:50:10.045Z,6.90
2023-01-11T21:52:37.963Z,6.90
2023-01-11T21:55:06.561Z,7.00
2023-01-11T21:57:34.398Z,6.90
2023-01-11T22:00:02.218Z,7.00
2023-01-11T22:02:41.376Z,7.00
2023-01-11T22:05:10.463Z,7.00
2023-01-11T22:07:40.267Z,7.00
2023-01-11T22:10:09.189Z,7.00
2023-01-11T22:12:36.998Z,7.00
2023-01-11T22:15:05.315Z,7.00
2023-01-11T22:17:33.140Z,7.00
2023-01-11T22:20:02.345Z,6.90
2023-01-11T22:22:30.224Z,6.90
2023-01-11T22:24:58.066Z,6.90
2023-01-11T22:27:26.090Z,7.00
2023-01-11T22:29:54.762Z,6.90
2023-01-11T22:32:22.708Z,7.00
2023-01-11T22:34:50.605Z,7.00
2023-01-11T22:37:20.084Z,7.00
2023-01-11T22:39:48.005Z,7.10
2023-01-11T22:42:15.961Z,7.10
2023-01-11T22:44:43.866Z,7.10
2023-01-11T22:47:11.659Z,7.20
2023-01-11T22:49:39.513Z,7.20
2023-01-11T22:52:07.598Z,7.20
2023-01-11T22:54:36.916Z,7.20
2023-01-11T22:57:04.862Z,7.20
2023-01-11T22:59:32.705Z,7.30
2023-01-11T23:02:00.576Z,7.30
2023-01-11T23:04:28.609Z,7.30
2023-01-11T23:06:57.134Z,7.30
2023-01-11T23:09:25.325Z,7.40
2023-01-11T23:12:26.718Z,7.30
2023-01-11T23:14:54.598Z,7.40
2023-01-11T23:17:22.417Z,7.40
2023-01-11T23:19:50.297Z,7.40
2023-01-11T23:22:18.115Z,7.40
2023-01-11T23:24:45.936Z,7.40
2023-01-11T23:27:15.175Z,7.40
2023-01-11T23:29:43.115Z,7.40
2023-01-11T23:32:10.982Z,7.40
2023-01-11T23:34:38.837Z,7.40
2023-01-11T23:37:06.831Z,7.50
2023-01-11T23:39:34.673Z,7.50
2023-01-11T23:42:20.010Z,7.50
2023-01-11T23:44:49.460Z,7.50
2023-01-11T23:47:23.908Z,7.50
2023-01-11T23:49:52.982Z,7.50
2023-01-11T23:52:22.360Z,7.50
2023-01-11T23:54:50.514Z,7.50
2023-01-11T23:57:19.409Z,7.50
2023-01-11T23:59:48.705Z,7.50
